createdAt,value
2018-08-24T00:00:56.359Z,96.56
2018-08-24T00:01:56.342Z,97.33
2018-08-24T00:02:56.334Z,98.14
2018-08-24T00:03:56.344Z,98.72
2018-08-24T00:04:56.298Z,99.99
2018-08-24T00:05:56.284Z,99.99
2018-08-24T00:06:56.271Z,99.99
2018-08-24T00:07:56.255Z,99.99
2018-08-24T00:08:56.243Z,99.99
2018-08-24T00:09:56.228Z,99.99
2018-08-24T00:10:56.216Z,99.99
2018-08-24T00:11:56.200Z,99.99
2018-08-24T00:12:56.186Z,99.99
2018-08-24T00:13:56.173Z,99.99
2018-08-24T00:14:56.158Z,99.99
2018-08-24T00:15:56.144Z,99.99
2018-08-24T00:16:56.130Z,99.99
2018-08-24T00:17:56.117Z,99.99
2018-08-24T00:18:56.101Z,99.99
2018-08-24T00:19:56.088Z,99.99
2018-08-24T00:20:56.072Z,99.99
2018-08-24T00:21:56.058Z,99.99
2018-08-24T00:22:56.056Z,99.99
2018-08-24T00:23:56.032Z,99.99
2018-08-24T00:24:56.017Z,99.99
2018-08-24T00:25:56.003Z,99.99
2018-08-24T00:26:55.988Z,99.99
2018-08-24T00:27:55.978Z,99.99
2018-08-24T00:28:55.961Z,99.99
2018-08-24T00:29:55.946Z,99.99
2018-08-24T00:30:55.941Z,99.99
2018-08-24T00:31:55.920Z,99.99
2018-08-24T00:32:55.905Z,99.99
2018-08-24T00:33:55.890Z,99.99
2018-08-24T00:34:55.877Z,99.99
2018-08-24T00:35:55.862Z,99.99
2018-08-24T00:36:55.855Z,99.99
2018-08-24T00:37:55.832Z,99.99
2018-08-24T00:38:55.820Z,99.99
2018-08-24T00:39:55.805Z,99.99
2018-08-24T00:40:55.791Z,99.99
2018-08-24T00:41:55.781Z,99.99
2018-08-24T00:42:55.763Z,99.99
2018-08-24T00:43:55.749Z,99.99
2018-08-24T00:44:55.734Z,99.99
2018-08-24T00:45:55.722Z,99.99
2018-08-24T00:46:55.707Z,99.99
2018-08-24T00:47:55.693Z,99.99
2018-08-24T00:48:55.687Z,99.99
2018-08-24T00:49:55.664Z,99.99
2018-08-24T00:50:55.652Z,99.99
2018-08-24T00:51:55.637Z,99.99
2018-08-24T00:52:55.622Z,99.99
2018-08-24T00:53:55.611Z,99.99
2018-08-24T00:54:55.598Z,99.99
2018-08-24T00:55:55.588Z,99.99
2018-08-24T00:56:55.569Z,99.99
2018-08-24T00:57:55.553Z,99.99
2018-08-24T00:58:55.537Z,99.99
2018-08-24T00:59:55.524Z,99.99
2018-08-24T01:00:55.514Z,99.99
2018-08-24T01:01:55.495Z,99.99
2018-08-24T01:02:55.486Z,99.99
2018-08-24T01:03:56.681Z,99.99
2018-08-24T01:04:55.458Z,99.99
2018-08-24T01:05:55.454Z,99.99
2018-08-24T01:06:55.437Z,99.99
2018-08-24T01:07:55.413Z,99.99
2018-08-24T01:08:55.396Z,99.99
2018-08-24T01:09:55.383Z,99.99
2018-08-24T01:10:55.367Z,99.99
2018-08-24T01:11:55.354Z,99.99
2018-08-24T01:12:55.355Z,99.99
2018-08-24T01:13:55.326Z,99.99
2018-08-24T01:14:55.312Z,99.99
2018-08-24T01:15:55.297Z,99.99
2018-08-24T01:16:55.281Z,99.99
2018-08-24T01:17:55.268Z,99.99
2018-08-24T01:18:55.256Z,99.99
2018-08-24T01:19:55.390Z,99.99
2018-08-24T01:20:55.227Z,99.99
2018-08-24T01:21:55.213Z,99.99
2018-08-24T01:22:55.198Z,99.99
2018-08-24T01:23:55.183Z,99.99
2018-08-24T01:24:55.172Z,99.99
2018-08-24T01:25:55.154Z,99.99
2018-08-24T01:26:55.140Z,99.99
2018-08-24T01:27:55.127Z,99.99
2018-08-24T01:28:55.112Z,99.99
2018-08-24T01:29:55.099Z,99.99
2018-08-24T01:30:55.083Z,99.99
2018-08-24T01:31:55.071Z,99.99
2018-08-24T01:32:55.055Z,99.99
2018-08-24T01:33:55.042Z,99.99
2018-08-24T01:34:55.029Z,99.99
2018-08-24T01:35:55.012Z,99.99
2018-08-24T01:36:54.998Z,99.99
2018-08-24T01:37:54.984Z,99.99
2018-08-24T01:38:54.971Z,99.99
2018-08-24T01:39:54.955Z,99.99
2018-08-24T01:40:54.940Z,99.99
2018-08-24T01:41:54.929Z,99.99
2018-08-24T01:42:54.913Z,99.99
2018-08-24T01:43:54.899Z,99.99
2018-08-24T01:44:54.884Z,99.99
2018-08-24T01:45:54.872Z,99.99
2018-08-24T01:46:54.908Z,99.99
2018-08-24T01:47:54.841Z,99.99
2018-08-24T01:48:54.828Z,99.99
2018-08-24T01:49:54.812Z,99.99
2018-08-24T01:50:54.798Z,99.99
2018-08-24T01:51:54.783Z,99.99
2018-08-24T01:52:54.768Z,99.99
2018-08-24T01:53:54.755Z,99.99
2018-08-24T01:54:54.741Z,99.99
2018-08-24T01:55:54.725Z,99.99
2018-08-24T01:56:54.712Z,99.99
2018-08-24T01:57:54.702Z,99.99
2018-08-24T01:58:54.687Z,99.99
2018-08-24T01:59:54.675Z,99.99
2018-08-24T02:00:54.653Z,99.99
2018-08-24T02:01:54.639Z,99.99
2018-08-24T02:02:54.624Z,99.99
2018-08-24T02:03:54.609Z,99.99
2018-08-24T02:04:54.595Z,99.99
2018-08-24T02:05:54.582Z,99.99
2018-08-24T02:06:54.567Z,99.99
2018-08-24T02:07:54.556Z,99.99
2018-08-24T02:08:54.538Z,99.99
2018-08-24T02:09:54.523Z,99.99
2018-08-24T02:10:54.509Z,99.99
2018-08-24T02:11:54.493Z,99.99
2018-08-24T02:12:54.478Z,99.99
2018-08-24T02:13:54.468Z,99.49
2018-08-24T02:14:54.451Z,99.10
2018-08-24T02:15:54.437Z,98.72
2018-08-24T02:16:54.421Z,97.96
2018-08-24T02:17:54.407Z,98.43
2018-08-24T02:18:54.393Z,98.43
2018-08-24T02:19:54.378Z,98.05
2018-08-24T02:20:54.366Z,97.76
2018-08-24T02:21:54.349Z,97.96
2018-08-24T02:22:54.335Z,98.43
2018-08-24T02:23:54.320Z,98.72
2018-08-24T02:24:54.305Z,97.96
2018-08-24T02:25:54.293Z,98.10
2018-08-24T02:26:54.277Z,96.80
2018-08-24T02:27:54.260Z,97.47
2018-08-24T02:28:54.248Z,97.38
2018-08-24T02:29:54.233Z,96.51
2018-08-24T02:30:54.217Z,96.61
2018-08-24T02:31:54.206Z,96.61
2018-08-24T02:32:54.237Z,94.01
2018-08-24T02:33:54.172Z,94.88
2018-08-24T02:34:54.160Z,95.17
2018-08-24T02:35:54.144Z,96.03
2018-08-24T02:36:54.129Z,95.94
2018-08-24T02:37:54.124Z,95.31
2018-08-24T02:38:54.099Z,95.31
2018-08-24T02:39:54.096Z,94.54
2018-08-24T02:40:54.073Z,93.49
2018-08-24T02:41:54.057Z,93.59
2018-08-24T02:42:54.043Z,93.59
2018-08-24T02:43:54.027Z,95.03
2018-08-24T02:44:54.053Z,95.26
2018-08-24T02:45:53.996Z,93.87
2018-08-24T02:46:53.980Z,94.74
2018-08-24T02:47:53.965Z,95.41
2018-08-24T02:48:53.952Z,95.70
2018-08-24T02:49:53.936Z,95.70
2018-08-24T02:50:53.922Z,96.27
2018-08-24T02:51:53.906Z,95.41
2018-08-24T02:52:53.891Z,96.66
2018-08-24T02:53:53.877Z,95.60
2018-08-24T02:54:53.863Z,96.08
2018-08-24T02:55:53.846Z,95.89
2018-08-24T02:56:53.833Z,96.56
2018-08-24T02:57:53.817Z,96.37
2018-08-24T02:58:53.806Z,95.98
2018-08-24T02:59:53.787Z,96.18
2018-08-24T03:00:53.782Z,95.79
2018-08-24T03:01:53.758Z,95.12
2018-08-24T03:02:53.742Z,94.93
2018-08-24T03:03:53.725Z,95.50
2018-08-24T03:04:53.712Z,95.31
2018-08-24T03:05:53.701Z,95.31
2018-08-24T03:06:53.683Z,95.03
2018-08-24T03:07:53.674Z,95.98
2018-08-24T03:08:53.653Z,96.18
2018-08-24T03:09:53.636Z,96.51
2018-08-24T03:10:53.622Z,97.28
2018-08-24T03:11:53.611Z,97.56
2018-08-24T03:12:53.591Z,98.82
2018-08-24T03:13:53.577Z,98.62
2018-08-24T03:14:53.560Z,98.72
2018-08-24T03:15:53.595Z,99.20
2018-08-24T03:16:53.529Z,99.01
2018-08-24T03:17:53.516Z,99.01
2018-08-24T03:18:53.501Z,99.20
2018-08-24T03:19:53.483Z,99.20
2018-08-24T03:20:53.470Z,99.77
2018-08-24T03:21:53.453Z,99.87
2018-08-24T03:22:53.442Z,99.99
2018-08-24T03:23:53.421Z,99.99
2018-08-24T03:24:53.412Z,99.99
2018-08-24T03:25:53.401Z,99.99
2018-08-24T03:26:53.378Z,99.99
2018-08-24T03:27:53.364Z,99.87
2018-08-24T03:28:53.347Z,99.87
2018-08-24T03:29:53.332Z,99.96
2018-08-24T03:30:53.318Z,99.58
2018-08-24T03:31:53.308Z,99.99
2018-08-24T03:32:53.286Z,99.68
2018-08-24T03:33:53.287Z,99.99
2018-08-24T03:34:53.257Z,99.99
2018-08-24T03:35:53.241Z,99.99
2018-08-24T03:36:53.225Z,99.99
2018-08-24T03:37:53.213Z,99.99
2018-08-24T03:38:53.198Z,99.99
2018-08-24T03:39:53.185Z,99.99
2018-08-24T03:40:53.167Z,99.99
2018-08-24T03:41:53.151Z,99.99
2018-08-24T03:42:53.138Z,99.99
2018-08-24T03:43:53.120Z,99.99
2018-08-24T03:44:53.106Z,99.99
2018-08-24T03:45:53.185Z,99.99
2018-08-24T03:46:53.075Z,99.99
2018-08-24T03:47:53.059Z,99.99
2018-08-24T03:48:53.044Z,99.99
2018-08-24T03:49:53.037Z,99.99
2018-08-24T03:50:53.016Z,99.99
2018-08-24T03:51:52.999Z,99.99
2018-08-24T03:52:53.105Z,99.99
2018-08-24T03:53:52.968Z,99.99
2018-08-24T03:54:52.952Z,99.99
2018-08-24T03:55:52.938Z,99.99
2018-08-24T03:56:52.921Z,99.99
2018-08-24T03:57:52.906Z,99.99
2018-08-24T03:58:52.891Z,99.99
2018-08-24T03:59:52.876Z,99.99
2018-08-24T04:00:52.866Z,99.99
2018-08-24T04:01:52.848Z,99.99
2018-08-24T04:02:52.832Z,99.99
2018-08-24T04:03:52.814Z,99.99
2018-08-24T04:04:52.809Z,99.99
2018-08-24T04:05:52.790Z,99.99
2018-08-24T04:06:52.770Z,99.99
2018-08-24T04:07:52.753Z,99.99
2018-08-24T04:08:52.737Z,99.99
2018-08-24T04:09:52.724Z,99.99
2018-08-24T04:10:52.708Z,99.99
2018-08-24T04:11:52.698Z,99.99
2018-08-24T04:12:52.733Z,99.99
2018-08-24T04:13:52.661Z,99.99
2018-08-24T04:14:52.647Z,99.99
2018-08-24T04:15:52.633Z,99.99
2018-08-24T04:16:52.620Z,99.99
2018-08-24T04:17:52.608Z,99.99
2018-08-24T04:18:52.583Z,99.99
2018-08-24T04:19:52.567Z,99.99
2018-08-24T04:20:52.558Z,99.99
2018-08-24T04:21:52.538Z,99.99
2018-08-24T04:22:52.524Z,99.99
2018-08-24T04:23:52.508Z,99.99
2018-08-24T04:24:52.527Z,99.99
2018-08-24T04:25:52.508Z,99.99
2018-08-24T04:26:52.472Z,99.99
2018-08-24T04:27:52.446Z,99.99
2018-08-24T04:28:52.430Z,99.99
2018-08-24T04:29:52.417Z,99.99
2018-08-24T04:30:52.409Z,99.99
2018-08-24T04:31:52.386Z,99.99
2018-08-24T04:32:52.371Z,99.99
2018-08-24T04:33:52.355Z,99.99
2018-08-24T04:34:52.371Z,99.99
2018-08-24T04:35:52.325Z,99.99
2018-08-24T04:36:52.348Z,99.99
2018-08-24T04:37:52.293Z,99.99
2018-08-24T04:38:52.279Z,99.99
2018-08-24T04:39:52.261Z,99.99
2018-08-24T04:40:52.246Z,99.99
2018-08-24T04:41:52.233Z,99.99
2018-08-24T04:42:52.217Z,99.99
2018-08-24T04:43:52.200Z,99.99
2018-08-24T04:44:52.186Z,99.99
2018-08-24T04:45:52.174Z,99.99
2018-08-24T04:46:52.160Z,99.99
2018-08-24T04:47:52.148Z,99.99
2018-08-24T04:48:52.124Z,99.99
2018-08-24T04:49:52.111Z,99.99
2018-08-24T04:50:52.093Z,99.99
2018-08-24T04:51:52.077Z,99.99
2018-08-24T04:52:52.064Z,99.99
2018-08-24T04:53:52.047Z,99.99
2018-08-24T04:54:52.035Z,99.99
2018-08-24T04:55:52.015Z,99.99
2018-08-24T04:56:52.005Z,99.99
2018-08-24T04:57:51.986Z,99.99
2018-08-24T04:58:51.970Z,99.99
2018-08-24T04:59:51.958Z,99.99
2018-08-24T05:00:51.942Z,99.99
2018-08-24T05:01:51.933Z,99.99
2018-08-24T05:02:51.910Z,99.99
2018-08-24T05:03:51.896Z,99.99
2018-08-24T05:04:51.880Z,99.99
2018-08-24T05:05:51.985Z,99.99
2018-08-24T05:06:51.851Z,99.99
2018-08-24T05:07:51.833Z,99.99
2018-08-24T05:08:51.818Z,99.99
2018-08-24T05:09:51.801Z,99.99
2018-08-24T05:10:51.789Z,99.99
2018-08-24T05:11:51.773Z,99.99
2018-08-24T05:12:51.761Z,99.99
2018-08-24T05:13:51.743Z,99.99
2018-08-24T05:14:51.728Z,99.99
2018-08-24T05:15:51.711Z,99.99
2018-08-24T05:16:51.696Z,99.99
2018-08-24T05:17:51.680Z,99.99
2018-08-24T05:18:51.664Z,99.99
2018-08-24T05:19:51.648Z,99.99
2018-08-24T05:20:51.635Z,99.99
2018-08-24T05:21:51.620Z,99.99
2018-08-24T05:22:51.605Z,99.99
2018-08-24T05:23:51.587Z,99.99
2018-08-24T05:24:51.678Z,99.99
2018-08-24T05:25:51.559Z,99.99
2018-08-24T05:26:51.549Z,99.99
2018-08-24T05:27:51.527Z,99.99
2018-08-24T05:28:51.513Z,99.99
2018-08-24T05:29:51.505Z,99.99
2018-08-24T05:30:51.516Z,99.99
2018-08-24T05:31:51.467Z,99.99
2018-08-24T05:32:51.456Z,99.99
2018-08-24T05:33:51.439Z,99.99
2018-08-24T05:34:51.423Z,99.99
2018-08-24T05:35:51.407Z,99.99
2018-08-24T05:36:51.391Z,99.99
2018-08-24T05:37:51.376Z,99.99
2018-08-24T05:38:51.369Z,99.99
2018-08-24T05:39:51.344Z,99.99
2018-08-24T05:40:51.329Z,99.99
2018-08-24T05:41:51.315Z,99.99
2018-08-24T05:42:51.309Z,99.99
2018-08-24T05:43:51.284Z,99.99
2018-08-24T05:44:51.276Z,99.99
2018-08-24T05:45:51.254Z,99.99
2018-08-24T05:46:51.240Z,99.99
2018-08-24T05:47:51.225Z,99.99
2018-08-24T05:48:51.273Z,99.99
2018-08-24T05:49:51.196Z,99.99
2018-08-24T05:50:51.181Z,99.99
2018-08-24T05:51:51.164Z,99.99
2018-08-24T05:52:51.155Z,99.99
2018-08-24T05:53:51.135Z,99.99
2018-08-24T05:54:51.118Z,99.99
2018-08-24T05:55:51.103Z,99.99
2018-08-24T05:56:51.088Z,99.99
2018-08-24T05:57:51.074Z,99.99
2018-08-24T05:58:51.058Z,99.99
2018-08-24T05:59:51.042Z,99.99
2018-08-24T06:00:51.038Z,99.99
2018-08-24T06:01:51.014Z,99.99
2018-08-24T06:02:51.000Z,99.99
2018-08-24T06:03:50.987Z,99.99
2018-08-24T06:04:50.972Z,99.99
2018-08-24T06:05:50.995Z,99.99
2018-08-24T06:06:50.947Z,99.99
2018-08-24T06:07:50.928Z,99.99
2018-08-24T06:08:50.966Z,99.99
2018-08-24T06:09:50.894Z,99.99
2018-08-24T06:10:50.880Z,99.99
2018-08-24T06:11:50.865Z,99.99
2018-08-24T06:12:50.850Z,99.99
2018-08-24T06:13:50.844Z,99.99
2018-08-24T06:14:50.895Z,99.99
2018-08-24T06:15:50.882Z,99.99
2018-08-24T06:16:50.901Z,99.99
2018-08-24T06:17:50.818Z,99.99
2018-08-24T06:18:50.763Z,99.99
2018-08-24T06:19:50.754Z,99.99
2018-08-24T06:20:50.742Z,99.99
2018-08-24T06:21:50.724Z,99.99
2018-08-24T06:22:50.706Z,99.99
2018-08-24T06:23:50.688Z,99.99
2018-08-24T06:24:50.677Z,99.99
2018-08-24T06:25:50.659Z,99.99
2018-08-24T06:26:50.646Z,99.99
2018-08-24T06:27:50.629Z,99.99
2018-08-24T06:28:50.617Z,99.99
2018-08-24T06:29:50.604Z,99.99
2018-08-24T06:30:50.585Z,99.99
2018-08-24T06:31:50.569Z,99.99
2018-08-24T06:32:50.566Z,99.99
2018-08-24T06:33:50.540Z,99.99
2018-08-24T06:34:50.527Z,99.99
2018-08-24T06:35:50.512Z,99.99
2018-08-24T06:36:50.530Z,99.99
2018-08-24T06:37:50.482Z,99.99
2018-08-24T06:38:50.467Z,99.99
2018-08-24T06:39:50.479Z,99.99
2018-08-24T06:40:50.437Z,99.99
2018-08-24T06:41:50.481Z,99.99
2018-08-24T06:42:50.409Z,99.99
2018-08-24T06:43:50.392Z,99.99
2018-08-24T06:44:50.382Z,99.99
2018-08-24T06:45:50.375Z,99.99
2018-08-24T06:46:50.348Z,99.99
2018-08-24T06:47:50.408Z,99.99
2018-08-24T06:48:50.324Z,99.99
2018-08-24T06:49:50.314Z,99.99
2018-08-24T06:50:50.289Z,99.99
2018-08-24T06:51:50.274Z,99.99
2018-08-24T06:52:50.260Z,99.99
2018-08-24T06:53:50.337Z,99.99
2018-08-24T06:54:50.233Z,99.99
2018-08-24T06:55:50.216Z,99.99
2018-08-24T06:56:50.199Z,99.99
2018-08-24T06:57:50.194Z,99.99
2018-08-24T06:58:50.177Z,99.99
2018-08-24T06:59:50.157Z,99.99
2018-08-24T07:00:50.148Z,99.99
2018-08-24T07:01:50.127Z,99.99
2018-08-24T07:02:50.115Z,99.99
2018-08-24T07:03:50.096Z,99.99
2018-08-24T07:04:50.083Z,99.99
2018-08-24T07:05:50.104Z,99.99
2018-08-24T07:06:50.056Z,99.99
2018-08-24T07:07:50.041Z,99.99
2018-08-24T07:08:50.025Z,99.99
2018-08-24T07:09:50.010Z,99.99
2018-08-24T07:10:50.006Z,99.99
2018-08-24T07:11:49.982Z,99.99
2018-08-24T07:12:49.998Z,99.99
2018-08-24T07:13:49.965Z,99.99
2018-08-24T07:14:49.938Z,99.99
2018-08-24T07:15:49.922Z,99.99
2018-08-24T07:16:49.908Z,99.99
2018-08-24T07:17:49.891Z,99.99
2018-08-24T07:18:49.880Z,99.99
2018-08-24T07:19:49.866Z,99.99
2018-08-24T07:20:49.848Z,99.99
2018-08-24T07:21:49.835Z,99.99
2018-08-24T07:22:49.821Z,99.99
2018-08-24T07:23:49.805Z,99.99
2018-08-24T07:24:49.789Z,99.99
2018-08-24T07:25:49.775Z,99.99
2018-08-24T07:26:49.762Z,99.99
2018-08-24T07:27:49.745Z,99.99
2018-08-24T07:28:49.731Z,99.99
2018-08-24T07:29:49.716Z,99.99
2018-08-24T07:30:49.705Z,99.99
2018-08-24T07:31:49.688Z,99.99
2018-08-24T07:32:49.678Z,99.99
2018-08-24T07:33:49.660Z,99.99
2018-08-24T07:34:49.643Z,99.99
2018-08-24T07:35:49.637Z,99.99
2018-08-24T07:36:49.616Z,99.99
2018-08-24T07:37:49.601Z,99.99
2018-08-24T07:38:49.592Z,99.99
2018-08-24T07:39:49.569Z,99.99
2018-08-24T07:40:49.564Z,99.99
2018-08-24T07:41:49.636Z,99.99
2018-08-24T07:42:49.545Z,99.99
2018-08-24T07:43:49.514Z,99.99
2018-08-24T07:44:49.515Z,99.99
2018-08-24T07:45:49.504Z,99.99
2018-08-24T07:46:49.472Z,99.99
2018-08-24T07:47:49.455Z,99.99
2018-08-24T07:48:49.440Z,99.99
2018-08-24T07:49:49.427Z,99.99
2018-08-24T07:50:49.483Z,99.99
2018-08-24T07:51:49.407Z,99.99
2018-08-24T07:52:49.385Z,99.99
2018-08-24T07:53:49.469Z,99.99
2018-08-24T07:54:49.355Z,99.99
2018-08-24T07:55:49.345Z,99.99
2018-08-24T07:56:49.339Z,99.99
2018-08-24T07:57:49.311Z,99.99
2018-08-24T07:58:49.314Z,99.99
2018-08-24T07:59:49.282Z,99.99
2018-08-24T08:00:49.282Z,99.99
2018-08-24T08:01:49.257Z,99.99
2018-08-24T08:02:49.246Z,99.99
2018-08-24T08:03:49.237Z,99.99
2018-08-24T08:04:49.216Z,99.99
2018-08-24T08:05:49.194Z,99.99
2018-08-24T08:06:49.184Z,99.99
2018-08-24T08:07:49.167Z,99.99
2018-08-24T08:08:49.152Z,99.99
2018-08-24T08:09:49.138Z,99.99
2018-08-24T08:10:49.124Z,99.99
2018-08-24T08:11:49.260Z,99.99
2018-08-24T08:12:49.091Z,99.99
2018-08-24T08:13:49.079Z,99.49
2018-08-24T08:14:49.064Z,97.47
2018-08-24T08:15:49.048Z,95.07
2018-08-24T08:16:49.036Z,93.38
2018-08-24T08:17:49.026Z,91.66
2018-08-24T08:18:49.005Z,92.52
2018-08-24T08:19:48.990Z,92.38
2018-08-24T08:20:48.977Z,91.46
2018-08-24T08:21:48.968Z,90.69
2018-08-24T08:22:48.963Z,90.31
2018-08-24T08:23:48.945Z,91.03
2018-08-24T08:24:49.069Z,91.08
2018-08-24T08:25:48.910Z,91.52
2018-08-24T08:26:48.889Z,91.52
2018-08-24T08:27:48.875Z,91.61
2018-08-24T08:28:48.860Z,91.36
2018-08-24T08:29:48.863Z,90.41
2018-08-24T08:30:48.847Z,90.02
2018-08-24T08:31:48.818Z,89.64
2018-08-24T08:32:48.805Z,89.54
2018-08-24T08:33:48.795Z,88.34
2018-08-24T08:34:48.779Z,88.34
2018-08-24T08:35:48.767Z,87.38
2018-08-24T08:36:48.750Z,87.38
2018-08-24T08:37:48.734Z,87.57
2018-08-24T08:38:48.735Z,87.29
2018-08-24T08:39:48.712Z,87.86
2018-08-24T08:40:48.694Z,87.86
2018-08-24T08:41:48.687Z,88.63
2018-08-24T08:42:48.666Z,89.21
2018-08-24T08:43:48.654Z,89.21
2018-08-24T08:44:48.647Z,88.24
2018-08-24T08:45:48.628Z,87.19
2018-08-24T08:46:48.741Z,86.85
2018-08-24T08:47:48.600Z,86.61
2018-08-24T08:48:48.584Z,86.46
2018-08-24T08:49:48.626Z,85.02
2018-08-24T08:50:48.560Z,83.58
2018-08-24T08:51:48.544Z,83.29
2018-08-24T08:52:48.531Z,83.72
2018-08-24T08:53:48.517Z,82.17
2018-08-24T08:54:48.505Z,82.02
2018-08-24T08:55:48.491Z,80.19
2018-08-24T08:56:48.486Z,79.13
2018-08-24T08:57:48.476Z,78.94
2018-08-24T08:58:48.453Z,79.13
2018-08-24T08:59:48.446Z,79.81
2018-08-24T09:00:48.427Z,80.06
2018-08-24T09:01:48.413Z,79.86
2018-08-24T09:02:48.482Z,80.15
2018-08-24T09:03:48.388Z,79.38
2018-08-24T09:04:48.376Z,78.27
2018-08-24T09:05:48.371Z,77.63
2018-08-24T09:06:48.352Z,77.34
2018-08-24T09:07:48.343Z,77.73
2018-08-24T09:08:48.325Z,77.15
2018-08-24T09:09:48.321Z,76.13
2018-08-24T09:10:48.321Z,76.23
2018-08-24T09:11:48.291Z,75.36
2018-08-24T09:12:48.313Z,75.07
2018-08-24T09:13:48.264Z,75.01
2018-08-24T09:14:48.253Z,74.62
2018-08-24T09:15:48.243Z,73.72
2018-08-24T09:16:48.231Z,73.43
2018-08-24T09:17:48.220Z,73.43
2018-08-24T09:18:48.207Z,73.62
2018-08-24T09:19:48.201Z,72.47
2018-08-24T09:20:48.186Z,72.60
2018-08-24T09:21:48.175Z,71.92
2018-08-24T09:22:48.162Z,70.86
2018-08-24T09:23:48.229Z,69.74
2018-08-24T09:24:48.139Z,68.77
2018-08-24T09:25:48.215Z,69.35
2018-08-24T09:26:48.115Z,68.87
2018-08-24T09:27:48.114Z,68.77
2018-08-24T09:28:48.097Z,68.74
2018-08-24T09:29:48.085Z,69.80
2018-08-24T09:30:48.070Z,70.92
2018-08-24T09:31:48.069Z,71.22
2018-08-24T09:32:48.088Z,71.02
2018-08-24T09:33:48.034Z,71.02
2018-08-24T09:34:48.026Z,72.27
2018-08-24T09:35:48.016Z,72.33
2018-08-24T09:36:48.001Z,72.91
2018-08-24T09:37:47.990Z,72.11
2018-08-24T09:38:47.980Z,72.07
2018-08-24T09:39:47.967Z,72.07
2018-08-24T09:40:47.954Z,72.45
2018-08-24T09:41:47.948Z,72.84
2018-08-24T09:42:47.934Z,70.89
2018-08-24T09:43:47.924Z,69.19
2018-08-24T09:44:47.912Z,68.52
2018-08-24T09:45:47.900Z,68.42
2018-08-24T09:46:47.888Z,67.23
2018-08-24T09:47:47.879Z,65.63
2018-08-24T09:48:47.870Z,63.63
2018-08-24T09:49:48.665Z,62.31
2018-08-24T09:50:47.850Z,60.99
2018-08-24T09:51:47.836Z,59.51
2018-08-24T09:52:47.834Z,60.54
2018-08-24T09:53:47.819Z,60.41
2018-08-24T09:54:47.809Z,58.14
2018-08-24T09:55:47.926Z,55.85
2018-08-24T09:56:47.840Z,53.29
2018-08-24T09:57:47.786Z,51.52
2018-08-24T09:58:47.784Z,54.17
2018-08-24T09:59:47.772Z,54.59
2018-08-24T10:00:47.760Z,54.47
2018-08-24T10:01:47.758Z,54.49
2018-08-24T10:02:47.762Z,52.87
2018-08-24T10:03:47.743Z,51.45
2018-08-24T10:04:47.748Z,50.79
2018-08-24T10:05:47.732Z,49.73
2018-08-24T10:06:47.761Z,48.54
2018-08-24T10:08:31.922Z,52.05
2018-08-24T10:09:31.914Z,50.48
2018-08-24T10:10:31.916Z,50.62
2018-08-24T10:11:31.906Z,52.53
2018-08-24T10:12:31.934Z,54.35
2018-08-24T10:14:31.057Z,58.00
2018-08-24T10:16:04.264Z,59.06
2018-08-24T10:16:31.052Z,58.94
2018-08-24T10:17:31.042Z,60.26
2018-08-24T10:18:31.036Z,59.16
2018-08-24T10:19:31.038Z,56.84
2018-08-24T10:20:31.035Z,57.97
2018-08-24T10:21:31.133Z,58.00
2018-08-24T10:22:31.010Z,55.90
2018-08-24T10:23:31.010Z,54.68
2018-08-24T10:24:31.001Z,53.55
2018-08-24T10:25:30.990Z,52.22
2018-08-24T10:26:30.995Z,52.80
2018-08-24T10:27:31.004Z,51.37
2018-08-24T10:28:30.979Z,50.43
2018-08-24T10:29:31.184Z,48.13
2018-08-24T10:30:30.971Z,48.49
2018-08-24T10:31:30.957Z,48.49
2018-08-24T10:32:30.960Z,47.84
2018-08-24T10:33:30.949Z,47.11
2018-08-24T10:34:30.954Z,44.90
2018-08-24T10:35:30.950Z,44.15
2018-08-24T10:36:30.938Z,47.16
2018-08-24T10:37:30.946Z,49.56
2018-08-24T10:38:30.929Z,49.46
2018-08-24T10:39:30.925Z,49.00
2018-08-24T10:40:30.939Z,46.07
2018-08-24T10:41:30.921Z,44.32
2018-08-24T10:42:30.925Z,43.66
2018-08-24T10:43:30.916Z,43.30
2018-08-24T10:44:30.914Z,42.71
2018-08-24T10:45:30.972Z,42.11
2018-08-24T10:46:30.911Z,42.57
2018-08-24T10:47:30.910Z,43.13
2018-08-24T10:48:30.908Z,43.04
2018-08-24T10:49:31.025Z,43.04
2018-08-24T10:50:30.936Z,43.41
2018-08-24T10:51:30.906Z,44.09
2018-08-24T10:52:30.911Z,43.82
2018-08-24T10:53:30.903Z,43.35
2018-08-24T10:54:30.903Z,43.82
2018-08-24T10:55:30.912Z,43.13
2018-08-24T10:56:30.909Z,44.93
2018-08-24T10:57:30.902Z,44.67
2018-08-24T10:58:30.968Z,43.33
2018-08-24T10:59:30.908Z,42.75
2018-08-24T11:00:30.902Z,41.31
2018-08-24T11:01:30.905Z,39.76
2018-08-24T11:02:30.914Z,39.29
2018-08-24T11:03:30.923Z,38.54
2018-08-24T11:04:30.907Z,39.03
2018-08-24T11:05:30.988Z,39.61
2018-08-24T11:06:30.921Z,39.69
2018-08-24T11:07:30.959Z,40.39
2018-08-24T11:08:30.906Z,39.34
2018-08-24T11:09:30.908Z,39.70
2018-08-24T11:10:30.913Z,38.70
2018-08-24T11:11:30.910Z,37.60
2018-08-24T11:12:30.911Z,39.03
2018-08-24T11:13:30.908Z,39.03
2018-08-24T11:14:30.916Z,38.39
2018-08-24T11:15:30.908Z,37.80
2018-08-24T11:16:30.908Z,37.51
2018-08-24T11:17:30.911Z,38.11
2018-08-24T11:18:30.918Z,38.75
2018-08-24T11:19:30.908Z,39.78
2018-08-24T11:20:30.914Z,41.39
2018-08-24T11:21:30.908Z,41.68
2018-08-24T11:22:30.906Z,41.22
2018-08-24T11:23:30.906Z,40.54
2018-08-24T11:24:30.911Z,40.17
2018-08-24T11:25:30.919Z,40.44
2018-08-24T11:26:30.905Z,40.21
2018-08-24T11:27:30.930Z,41.62
2018-08-24T11:28:30.927Z,43.15
2018-08-24T11:29:30.906Z,43.63
2018-08-24T11:30:30.904Z,43.44
2018-08-24T11:31:30.899Z,42.66
2018-08-24T11:32:30.952Z,42.76
2018-08-24T11:33:30.897Z,42.96
2018-08-24T11:34:30.927Z,41.52
2018-08-24T11:35:30.891Z,41.31
2018-08-24T11:36:30.890Z,41.99
2018-08-24T11:37:30.884Z,42.37
2018-08-24T11:38:30.881Z,41.16
2018-08-24T11:39:30.880Z,40.31
2018-08-24T11:40:30.873Z,39.36
2018-08-24T11:41:30.871Z,39.72
2018-08-24T11:42:30.870Z,38.99
2018-08-24T11:43:30.865Z,38.50
2018-08-24T11:44:30.864Z,39.06
2018-08-24T11:45:30.858Z,39.36
2018-08-24T11:46:30.863Z,39.65
2018-08-24T11:47:30.854Z,39.94
2018-08-24T11:48:30.846Z,40.21
2018-08-24T11:49:30.852Z,40.50
2018-08-24T11:50:30.838Z,39.72
2018-08-24T11:51:30.838Z,40.58
2018-08-24T11:52:30.837Z,40.11
2018-08-24T11:53:30.837Z,40.28
2018-08-24T11:54:30.879Z,41.14
2018-08-24T11:55:30.812Z,42.83
2018-08-24T11:56:30.808Z,43.30
2018-08-24T11:57:33.828Z,44.07
2018-08-24T11:58:30.807Z,44.17
2018-08-24T11:59:30.797Z,44.36
2018-08-24T12:00:30.784Z,43.23
2018-08-24T12:01:30.778Z,42.66
2018-08-24T12:02:30.771Z,41.70
2018-08-24T12:03:30.771Z,41.64
2018-08-24T12:04:30.757Z,40.86
2018-08-24T12:05:30.759Z,39.65
2018-08-24T12:06:30.746Z,39.04
2018-08-24T12:07:30.748Z,39.34
2018-08-24T12:08:30.749Z,39.24
2018-08-24T12:09:30.724Z,40.44
2018-08-24T12:10:30.717Z,42.82
2018-08-24T12:11:30.710Z,44.15
2018-08-24T12:12:30.799Z,44.82
2018-08-24T12:13:30.694Z,44.63
2018-08-24T12:14:30.691Z,44.60
2018-08-24T12:15:30.690Z,45.96
2018-08-24T12:16:30.678Z,46.06
2018-08-24T12:17:30.667Z,46.15
2018-08-24T12:18:30.781Z,45.98
2018-08-24T12:19:30.648Z,45.79
2018-08-24T12:20:30.638Z,45.57
2018-08-24T12:21:30.675Z,45.50
2018-08-24T12:22:30.620Z,45.98
2018-08-24T12:23:30.610Z,46.08
2018-08-24T12:24:30.638Z,45.98
2018-08-24T12:25:30.594Z,45.89
2018-08-24T12:26:30.640Z,44.92
2018-08-24T12:27:30.574Z,45.31
2018-08-24T12:28:30.566Z,45.50
2018-08-24T12:29:30.558Z,45.86
2018-08-24T12:30:30.549Z,46.54
2018-08-24T12:31:30.550Z,46.83
2018-08-24T12:32:30.571Z,46.15
2018-08-24T12:33:30.520Z,46.37
2018-08-24T12:34:30.509Z,47.22
2018-08-24T12:35:30.509Z,47.38
2018-08-24T12:36:30.491Z,47.09
2018-08-24T12:37:30.481Z,46.73
2018-08-24T12:38:30.479Z,46.15
2018-08-24T12:39:30.468Z,45.11
2018-08-24T12:40:30.459Z,44.42
2018-08-24T12:41:30.443Z,44.51
2018-08-24T12:42:30.434Z,44.73
2018-08-24T12:43:30.521Z,44.73
2018-08-24T12:44:30.417Z,44.34
2018-08-24T12:45:30.403Z,44.34
2018-08-24T12:46:30.399Z,44.15
2018-08-24T12:47:30.384Z,44.34
2018-08-24T12:48:30.529Z,43.66
2018-08-24T12:49:30.385Z,43.45
2018-08-24T12:50:30.356Z,42.68
2018-08-24T12:51:30.348Z,41.50
2018-08-24T12:52:30.337Z,41.11
2018-08-24T12:53:30.327Z,40.75
2018-08-24T12:54:30.326Z,40.26